createdAt,value
2023-02-14T00:59:49.667Z,1.50
2023-02-14T01:49:48.703Z,1.00
2023-02-14T03:13:24.090Z,0.40
2023-02-14T03:19:11.124Z,0.10
2023-02-14T03:54:36.818Z,0.20
2023-02-14T04:39:48.641Z,0.10
2023-02-14T07:35:53.353Z,0.20
2023-02-14T09:08:05.879Z,3.60
2023-02-14T09:20:30.505Z,6.10
2023-02-14T09:22:58.662Z,7.60
2023-02-14T09:27:55.004Z,9.30
2023-02-14T09:32:53.576Z,12.40
2023-02-14T09:35:21.802Z,13.00
2023-02-14T09:37:51.441Z,14.60
2023-02-14T09:40:20.843Z,15.40
2023-02-14T09:43:01.978Z,15.80
2023-02-14T09:45:33.391Z,14.70
2023-02-14T09:48:07.776Z,15.90
2023-02-14T09:50:41.231Z,17.30
2023-02-14T09:53:22.749Z,17.70
2023-02-14T09:55:57.386Z,17.90
2023-02-14T09:58:32.664Z,19.30
2023-02-14T10:01:12.058Z,19.80
2023-02-14T10:04:01.034Z,19.60
2023-02-14T10:06:47.498Z,19.60
2023-02-14T10:09:30.986Z,20.20
2023-02-14T10:12:01.814Z,20.90
2023-02-14T10:14:36.084Z,21.80
2023-02-14T10:17:10.895Z,20.50
2023-02-14T10:19:42.836Z,21.20
2023-02-14T10:22:15.630Z,20.60
2023-02-14T10:24:50.599Z,20.40
2023-02-14T10:27:31.838Z,20.20
2023-02-14T10:30:00.199Z,21.00
2023-02-14T10:32:36.472Z,19.80
2023-02-14T10:35:13.258Z,19.80
2023-02-14T10:37:52.014Z,19.10
2023-02-14T10:40:59.163Z,19.70
2023-02-14T10:43:39.159Z,20.20
2023-02-14T10:46:18.228Z,19.70
2023-02-14T10:48:55.632Z,20.00
2023-02-14T10:51:33.859Z,20.20
2023-02-14T10:54:17.100Z,18.90
2023-02-14T10:56:50.173Z,19.90
2023-02-14T10:59:23.707Z,21.00
2023-02-14T11:01:54.235Z,19.80
2023-02-14T11:04:24.924Z,19.40
2023-02-14T11:06:53.798Z,19.70
2023-02-14T11:11:53.085Z,18.20
2023-02-14T11:14:30.178Z,19.30
2023-02-14T11:16:59.867Z,19.40
2023-02-14T11:19:29.597Z,19.90
2023-02-14T11:21:59.786Z,19.70
2023-02-14T11:24:30.966Z,19.40
2023-02-14T11:27:01.914Z,18.90
2023-02-14T11:29:34.455Z,18.50
2023-02-14T11:32:09.814Z,19.00
2023-02-14T11:34:40.536Z,19.50
2023-02-14T11:37:26.948Z,18.70
2023-02-14T11:39:56.659Z,19.30
2023-02-14T11:42:41.354Z,18.50
2023-02-14T11:45:32.811Z,17.90
2023-02-14T11:48:37.305Z,17.70
2023-02-14T11:51:09.933Z,15.90
2023-02-14T11:53:46.862Z,15.10
2023-02-14T11:56:16.346Z,14.90
2023-02-14T11:58:52.127Z,13.90
2023-02-14T12:01:27.464Z,13.80
2023-02-14T12:03:58.274Z,13.00
2023-02-14T12:09:12.393Z,12.40
2023-02-14T12:14:22.760Z,12.30
2023-02-14T12:16:59.287Z,12.30
2023-02-14T12:19:36.697Z,12.20
2023-02-14T12:22:06.524Z,12.10
2023-02-14T12:24:39.432Z,12.20
2023-02-14T12:27:20.070Z,11.50
2023-02-14T12:29:52.070Z,12.40
2023-02-14T12:32:25.333Z,11.60
2023-02-14T12:34:59.184Z,11.50
2023-02-14T12:37:48.781Z,12.10
2023-02-14T12:40:30.126Z,12.40
2023-02-14T12:43:19.711Z,12.30
2023-02-14T12:46:04.645Z,12.60
2023-02-14T12:48:48.270Z,12.70
2023-02-14T12:51:24.168Z,13.50
2023-02-14T12:54:00.287Z,14.00
2023-02-14T12:56:41.037Z,14.30
2023-02-14T12:59:24.255Z,14.30
2023-02-14T13:02:14.253Z,14.30
2023-02-14T13:04:57.845Z,14.70
2023-02-14T13:07:39.550Z,14.80
2023-02-14T13:10:20.372Z,14.60
2023-02-14T13:12:55.156Z,15.40
2023-02-14T13:15:31.834Z,15.70
2023-02-14T13:18:06.240Z,15.60
2023-02-14T13:20:51.755Z,15.40
2023-02-14T13:23:25.730Z,15.50
2023-02-14T13:25:59.236Z,15.90
2023-02-14T13:28:30.439Z,15.60
2023-02-14T13:31:01.771Z,15.80
2023-02-14T13:33:35.269Z,14.90
2023-02-14T13:36:08.838Z,15.30
2023-02-14T13:38:43.955Z,15.10
2023-02-14T13:41:12.791Z,15.50
2023-02-14T13:43:49.378Z,14.80
2023-02-14T13:46:20.593Z,15.80
2023-02-14T13:49:00.926Z,15.80
2023-02-14T13:51:50.998Z,15.40
2023-02-14T13:54:33.239Z,14.80
2023-02-14T13:57:02.836Z,15.20
2023-02-14T13:59:33.927Z,15.40
2023-02-14T14:02:41.191Z,14.90
2023-02-14T14:05:43.741Z,15.20
2023-02-14T14:08:51.113Z,15.90
2023-02-14T14:12:01.344Z,15.10
2023-02-14T14:14:37.245Z,14.90
2023-02-14T14:17:25.962Z,14.60
2023-02-14T14:19:54.766Z,15.50
2023-02-14T14:22:23.122Z,14.60
2023-02-14T14:25:00.394Z,14.70
2023-02-14T14:27:33.075Z,14.60
2023-02-14T14:30:04.196Z,14.70
2023-02-14T14:32:34.525Z,15.10
2023-02-14T14:35:05.875Z,14.90
2023-02-14T14:37:35.543Z,14.50
2023-02-14T14:40:06.256Z,15.10
2023-02-14T14:42:39.110Z,15.30
2023-02-14T14:45:20.051Z,15.30
2023-02-14T14:47:48.886Z,15.60
2023-02-14T14:50:19.525Z,15.70
2023-02-14T14:52:50.004Z,15.20
2023-02-14T14:55:21.467Z,15.00
2023-02-14T14:57:52.487Z,15.10
2023-02-14T15:00:27.144Z,14.90
2023-02-14T15:03:08.666Z,15.10
2023-02-14T15:05:39.462Z,14.80
2023-02-14T15:08:32.226Z,14.80
2023-02-14T15:11:03.748Z,14.90
2023-02-14T15:13:51.266Z,15.20
2023-02-14T15:16:23.505Z,14.50
2023-02-14T15:18:53.766Z,15.00
2023-02-14T15:21:22.211Z,14.30
2023-02-14T15:26:21.942Z,14.40
2023-02-14T15:28:57.433Z,14.40
2023-02-14T15:31:31.558Z,14.00
2023-02-14T15:34:03.024Z,13.40
2023-02-14T15:36:33.177Z,14.10
2023-02-14T15:39:03.743Z,14.00
2023-02-14T15:44:00.777Z,13.00
2023-02-14T15:46:35.773Z,13.40
2023-02-14T15:49:09.994Z,13.30
2023-02-14T15:51:40.546Z,12.60
2023-02-14T15:54:19.232Z,12.90
2023-02-14T15:56:50.364Z,12.60
2023-02-14T15:59:20.187Z,12.60
2023-02-14T16:01:55.830Z,12.20
2023-02-14T16:04:26.649Z,12.10
2023-02-14T16:07:19.810Z,11.90
2023-02-14T16:12:30.590Z,11.10
2023-02-14T16:15:19.032Z,11.60
2023-02-14T16:17:49.206Z,12.20
2023-02-14T16:20:23.512Z,11.00
2023-02-14T16:25:20.204Z,10.90
2023-02-14T16:32:53.659Z,10.60
2023-02-14T16:35:23.025Z,10.40
2023-02-14T16:40:24.977Z,9.60
2023-02-14T16:47:51.438Z,9.40
2023-02-14T16:52:52.562Z,9.10
2023-02-14T16:55:21.024Z,8.70
2023-02-14T16:57:52.626Z,8.60
2023-02-14T17:00:21.917Z,8.50
2023-02-14T17:02:51.637Z,8.50
2023-02-14T17:10:20.632Z,8.60
2023-02-14T17:12:49.860Z,8.70
2023-02-14T17:47:43.040Z,7.30
2023-02-14T17:55:10.796Z,7.10
2023-02-14T18:00:11.862Z,6.80
2023-02-14T18:12:36.494Z,5.90
2023-02-14T18:29:57.915Z,5.60
2023-02-14T18:32:26.020Z,5.70
2023-02-14T19:07:07.634Z,4.50
2023-02-14T19:24:32.915Z,4.70
2023-02-14T19:27:00.994Z,4.80
2023-02-14T19:34:30.123Z,4.60
2023-02-14T19:37:00.476Z,4.70
2023-02-14T19:57:18.119Z,3.80
2023-02-14T20:14:51.296Z,3.70
2023-02-14T20:37:20.288Z,3.00
2023-02-14T20:49:47.502Z,3.50
2023-02-14T21:41:59.795Z,3.00
2023-02-14T21:47:13.788Z,3.00
2023-02-14T21:54:59.663Z,2.70
2023-02-14T22:59:31.207Z,1.60
2023-02-14T23:42:41.271Z,0.90
2023-02-14T23:47:55.673Z,0.90
2023-02-14T23:55:21.782Z,1.30
